createdAt,value
2023-05-22T00:01:56.502Z,14.06
2023-05-22T00:04:23.417Z,14.02
2023-05-22T00:06:50.229Z,14.04
2023-05-22T00:09:16.912Z,13.99
2023-05-22T00:11:43.802Z,13.98
2023-05-22T00:14:10.724Z,13.93
2023-05-22T00:16:37.565Z,13.95
2023-05-22T00:19:04.899Z,13.98
2023-05-22T00:21:35.076Z,13.95
2023-05-22T00:24:02.188Z,13.88
2023-05-22T00:26:29.163Z,13.86
2023-05-22T00:28:55.948Z,13.83
2023-05-22T00:31:23.341Z,13.81
2023-05-22T00:33:50.434Z,13.83
2023-05-22T00:36:18.573Z,13.85
2023-05-22T00:38:45.325Z,13.83
2023-05-22T00:41:12.040Z,13.77
2023-05-22T00:43:39.631Z,13.78
2023-05-22T00:46:11.170Z,13.75
2023-05-22T00:48:38.400Z,13.79
2023-05-22T00:51:07.727Z,13.81
2023-05-22T00:53:34.879Z,13.74
2023-05-22T00:56:01.889Z,13.78
2023-05-22T00:58:29.544Z,13.78
2023-05-22T01:00:56.894Z,13.76
2023-05-22T01:03:26.994Z,13.77
2023-05-22T01:05:55.080Z,13.75
2023-05-22T01:08:22.636Z,13.72
2023-05-22T01:10:56.996Z,13.70
2023-05-22T01:13:45.744Z,13.64
2023-05-22T01:16:25.102Z,13.62
2023-05-22T01:19:12.501Z,13.59
2023-05-22T01:22:06.841Z,13.57
2023-05-22T01:24:48.849Z,13.55
2023-05-22T01:27:35.183Z,13.50
2023-05-22T01:30:21.138Z,13.49
2023-05-22T01:32:49.730Z,13.44
2023-05-22T01:35:18.994Z,13.43
2023-05-22T01:37:46.838Z,13.30
2023-05-22T01:40:13.851Z,13.33
2023-05-22T01:42:41.273Z,13.37
2023-05-22T01:45:12.247Z,13.34
2023-05-22T01:47:39.038Z,13.32
2023-05-22T01:50:07.124Z,13.32
2023-05-22T01:52:43.869Z,13.27
2023-05-22T01:55:20.490Z,13.23
2023-05-22T01:58:03.082Z,13.31
2023-05-22T02:00:31.369Z,13.28
2023-05-22T02:03:04.486Z,13.27
2023-05-22T02:05:35.856Z,13.19
2023-05-22T02:08:04.385Z,13.22
2023-05-22T02:10:33.391Z,13.18
2023-05-22T02:13:01.609Z,13.12
2023-05-22T02:15:29.855Z,13.14
2023-05-22T02:18:00.366Z,13.19
2023-05-22T02:20:27.254Z,13.13
2023-05-22T02:22:53.928Z,13.15
2023-05-22T02:25:21.045Z,13.11
2023-05-22T02:27:49.518Z,13.13
2023-05-22T02:30:18.457Z,13.13
2023-05-22T02:32:49.132Z,13.22
2023-05-22T02:35:16.098Z,13.15
2023-05-22T02:37:42.816Z,13.17
2023-05-22T02:40:13.021Z,13.18
2023-05-22T02:42:39.753Z,13.20
2023-05-22T02:45:07.245Z,13.12
2023-05-22T02:47:34.110Z,13.18
2023-05-22T02:50:00.785Z,13.19
2023-05-22T02:52:28.283Z,13.17
2023-05-22T02:54:55.380Z,13.12
2023-05-22T02:57:22.847Z,13.07
2023-05-22T02:59:49.523Z,13.06
2023-05-22T03:02:16.606Z,13.02
2023-05-22T03:04:43.321Z,13.04
2023-05-22T03:07:10.099Z,13.00
2023-05-22T03:09:37.117Z,12.96
2023-05-22T03:12:07.596Z,12.96
2023-05-22T03:14:34.649Z,12.91
2023-05-22T03:17:01.439Z,12.91
2023-05-22T03:19:28.265Z,12.87
2023-05-22T03:21:55.904Z,12.80
2023-05-22T03:24:22.653Z,12.74
2023-05-22T03:26:49.456Z,12.66
2023-05-22T03:29:23.173Z,12.61
2023-05-22T03:31:50.150Z,12.60
2023-05-22T03:34:17.099Z,12.58
2023-05-22T03:36:46.880Z,12.55
2023-05-22T03:39:16.070Z,12.48
2023-05-22T03:41:51.664Z,12.46
2023-05-22T03:44:18.833Z,12.45
2023-05-22T03:46:46.134Z,12.43
2023-05-22T03:49:12.836Z,12.42
2023-05-22T03:51:39.515Z,12.44
2023-05-22T03:54:06.239Z,12.47
2023-05-22T03:56:32.802Z,12.43
2023-05-22T03:58:59.666Z,12.44
2023-05-22T04:01:27.202Z,12.46
2023-05-22T04:03:53.847Z,12.48
2023-05-22T04:06:23.541Z,12.47
2023-05-22T04:08:50.250Z,12.50
2023-05-22T04:11:17.006Z,12.53
2023-05-22T04:13:43.767Z,12.55
2023-05-22T04:16:10.913Z,12.58
2023-05-22T04:18:37.811Z,12.63
2023-05-22T04:21:08.191Z,12.62
2023-05-22T04:23:35.312Z,12.71
2023-05-22T04:26:04.538Z,12.73
2023-05-22T04:28:31.525Z,12.81
2023-05-22T04:30:58.221Z,12.88
2023-05-22T04:33:25.148Z,12.86
2023-05-22T04:35:51.999Z,12.94
2023-05-22T04:38:18.899Z,12.89
2023-05-22T04:40:45.550Z,13.00
2023-05-22T04:43:13.804Z,13.03
2023-05-22T04:45:42.319Z,13.20
2023-05-22T04:48:09.392Z,13.45
2023-05-22T04:50:38.936Z,13.63
2023-05-22T04:53:06.508Z,13.86
2023-05-22T04:55:34.127Z,14.05
2023-05-22T04:58:01.780Z,14.16
2023-05-22T05:00:29.429Z,14.33
2023-05-22T05:02:57.510Z,14.35
2023-05-22T05:05:24.951Z,14.46
2023-05-22T05:07:53.300Z,14.52
2023-05-22T05:10:20.165Z,14.46
2023-05-22T05:12:46.842Z,14.49
2023-05-22T05:15:13.621Z,14.53
2023-05-22T05:17:41.151Z,14.61
2023-05-22T05:20:08.847Z,14.60
2023-05-22T05:22:36.078Z,14.57
2023-05-22T05:25:05.708Z,14.49
2023-05-22T05:27:33.454Z,14.43
2023-05-22T05:30:01.934Z,14.42
2023-05-22T05:32:45.765Z,14.32
2023-05-22T05:35:23.632Z,14.26
2023-05-22T05:38:02.494Z,14.39
2023-05-22T05:40:33.608Z,14.49
2023-05-22T05:43:00.455Z,14.50
2023-05-22T05:45:28.968Z,14.53
2023-05-22T05:47:56.421Z,14.45
2023-05-22T05:50:24.075Z,14.36
2023-05-22T05:52:50.818Z,14.50
2023-05-22T05:55:19.335Z,14.65
2023-05-22T05:57:47.904Z,14.90
2023-05-22T06:00:22.564Z,15.17
2023-05-22T06:02:52.254Z,15.46
2023-05-22T06:05:39.111Z,15.74
2023-05-22T06:08:21.874Z,15.89
2023-05-22T06:10:49.566Z,15.87
2023-05-22T06:13:31.498Z,16.02
2023-05-22T06:16:01.692Z,16.35
2023-05-22T06:18:29.673Z,16.31
2023-05-22T06:20:59.146Z,16.35
2023-05-22T06:23:26.005Z,16.41
2023-05-22T06:25:55.586Z,16.59
2023-05-22T06:28:23.350Z,16.82
2023-05-22T06:30:50.271Z,17.10
2023-05-22T06:33:19.776Z,17.27
2023-05-22T06:35:46.580Z,17.69
2023-05-22T06:38:13.407Z,18.08
2023-05-22T06:40:42.331Z,17.78
2023-05-22T06:43:22.401Z,17.46
2023-05-22T06:45:53.951Z,17.77
2023-05-22T06:48:23.653Z,17.90
2023-05-22T06:51:20.720Z,17.80
2023-05-22T06:53:51.498Z,17.72
2023-05-22T06:56:22.914Z,17.63
2023-05-22T06:59:10.953Z,17.40
2023-05-22T07:01:56.729Z,17.38
2023-05-22T07:04:49.734Z,17.41
2023-05-22T07:07:21.569Z,17.31
2023-05-22T07:09:48.287Z,17.37
2023-05-22T07:12:15.639Z,17.44
2023-05-22T07:14:42.652Z,17.34
2023-05-22T07:17:09.534Z,17.36
2023-05-22T07:19:41.365Z,17.14
2023-05-22T07:22:08.772Z,17.17
2023-05-22T07:24:37.708Z,17.18
2023-05-22T07:27:05.974Z,17.27
2023-05-22T07:29:33.965Z,17.30
2023-05-22T07:32:01.946Z,17.37
2023-05-22T07:34:34.355Z,17.48
2023-05-22T07:37:08.971Z,17.59
2023-05-22T07:39:35.999Z,17.61
2023-05-22T07:42:04.736Z,17.87
2023-05-22T07:44:34.629Z,18.21
2023-05-22T07:47:01.542Z,18.52
2023-05-22T07:49:29.730Z,18.81
2023-05-22T07:51:56.544Z,18.56
2023-05-22T07:54:25.519Z,18.48
2023-05-22T07:56:52.895Z,18.37
2023-05-22T07:59:21.672Z,18.57
2023-05-22T08:01:48.382Z,19.01
2023-05-22T08:04:15.415Z,19.00
2023-05-22T08:06:43.924Z,18.74
2023-05-22T08:09:10.820Z,18.83
2023-05-22T08:11:40.205Z,18.70
2023-05-22T08:14:07.692Z,18.70
2023-05-22T08:16:35.095Z,18.43
2023-05-22T08:19:02.063Z,18.27
2023-05-22T08:21:28.889Z,17.86
2023-05-22T08:23:55.728Z,17.51
2023-05-22T08:26:25.480Z,17.51
2023-05-22T08:28:52.416Z,17.76
2023-05-22T08:31:19.249Z,17.96
2023-05-22T08:33:46.149Z,18.01
2023-05-22T08:36:13.405Z,17.98
2023-05-22T08:38:41.187Z,17.85
2023-05-22T08:41:08.938Z,17.81
2023-05-22T08:43:35.907Z,17.82
2023-05-22T08:46:09.067Z,17.85
2023-05-22T08:48:35.971Z,18.19
2023-05-22T08:51:05.212Z,18.68
2023-05-22T08:53:36.335Z,18.95
2023-05-22T08:56:05.583Z,19.17
2023-05-22T08:58:36.825Z,19.39
2023-05-22T09:01:05.336Z,19.81
2023-05-22T09:03:35.237Z,20.10
2023-05-22T09:06:02.302Z,20.14
2023-05-22T09:08:29.076Z,20.31
2023-05-22T09:10:56.340Z,21.51
2023-05-22T09:13:32.097Z,21.52
2023-05-22T09:16:00.895Z,21.35
2023-05-22T09:18:29.149Z,20.90
2023-05-22T09:20:59.861Z,20.90
2023-05-22T09:23:28.154Z,21.71
2023-05-22T09:25:56.807Z,21.99
2023-05-22T09:28:24.485Z,22.24
2023-05-22T09:30:52.713Z,21.91
2023-05-22T09:33:20.304Z,22.43
2023-05-22T09:35:47.291Z,22.30
2023-05-22T09:38:14.249Z,22.10
2023-05-22T09:40:42.220Z,21.20
2023-05-22T09:43:10.575Z,20.95
2023-05-22T09:45:38.390Z,21.24
2023-05-22T09:48:06.316Z,21.77
2023-05-22T09:50:33.056Z,22.04
2023-05-22T09:53:05.039Z,21.49
2023-05-22T09:55:32.234Z,20.86
2023-05-22T09:58:03.151Z,20.84
2023-05-22T10:00:34.184Z,21.16
2023-05-22T10:03:12.733Z,21.28
2023-05-22T10:05:47.447Z,21.22
2023-05-22T10:08:17.643Z,21.24
2023-05-22T10:10:50.009Z,21.68
2023-05-22T10:13:17.231Z,21.74
2023-05-22T10:15:44.210Z,21.79
2023-05-22T10:18:11.834Z,21.76
2023-05-22T10:20:39.742Z,21.62
2023-05-22T10:23:08.051Z,21.45
2023-05-22T10:25:37.746Z,21.45
2023-05-22T10:28:06.401Z,21.80
2023-05-22T10:30:56.739Z,22.37
2023-05-22T10:33:32.099Z,22.56
2023-05-22T10:36:08.928Z,22.72
2023-05-22T10:38:46.899Z,22.40
2023-05-22T10:41:13.954Z,22.32
2023-05-22T10:43:44.372Z,22.44
2023-05-22T10:46:12.827Z,22.53
2023-05-22T10:48:41.439Z,22.15
2023-05-22T10:51:08.922Z,22.21
2023-05-22T10:53:36.245Z,22.23
2023-05-22T10:56:18.572Z,22.30
2023-05-22T10:58:56.755Z,22.09
2023-05-22T11:01:26.315Z,22.10
2023-05-22T11:04:02.008Z,22.13
2023-05-22T11:06:42.009Z,22.75
2023-05-22T11:09:32.174Z,22.87
2023-05-22T11:12:21.416Z,22.81
2023-05-22T11:14:50.121Z,22.79
2023-05-22T11:17:19.673Z,22.90
2023-05-22T11:20:05.573Z,23.40
2023-05-22T11:22:37.551Z,23.38
2023-05-22T11:25:08.024Z,23.55
2023-05-22T11:27:36.463Z,23.40
2023-05-22T11:30:04.335Z,23.45
2023-05-22T11:32:31.307Z,23.21
2023-05-22T11:34:58.025Z,23.10
2023-05-22T11:37:24.762Z,23.22
2023-05-22T11:39:56.563Z,23.10
2023-05-22T11:42:23.322Z,23.17
2023-05-22T11:44:50.234Z,23.51
2023-05-22T11:47:17.221Z,23.62
2023-05-22T11:49:44.405Z,23.43
2023-05-22T11:52:11.320Z,23.52
2023-05-22T11:54:38.961Z,23.76
2023-05-22T11:57:09.636Z,23.64
2023-05-22T11:59:36.283Z,23.49
2023-05-22T12:02:03.036Z,23.61
2023-05-22T12:04:30.284Z,24.13
2023-05-22T12:06:57.353Z,23.82
2023-05-22T12:09:24.483Z,23.79
2023-05-22T12:11:51.157Z,24.32
2023-05-22T12:14:17.824Z,24.78
2023-05-22T12:16:44.759Z,25.07
2023-05-22T12:19:12.262Z,25.38
2023-05-22T12:21:39.525Z,25.41
2023-05-22T12:24:06.479Z,25.04
2023-05-22T12:26:33.260Z,24.86
2023-05-22T12:29:00.137Z,24.58
2023-05-22T12:31:38.892Z,23.79
2023-05-22T12:34:09.010Z,23.93
2023-05-22T12:36:39.352Z,23.93
2023-05-22T12:39:17.719Z,24.08
2023-05-22T12:41:47.257Z,24.05
2023-05-22T12:44:16.588Z,24.04
2023-05-22T12:46:43.514Z,24.03
2023-05-22T12:49:11.050Z,24.36
2023-05-22T12:51:37.807Z,24.60
2023-05-22T12:54:05.111Z,24.23
2023-05-22T12:56:32.347Z,24.37
2023-05-22T12:58:59.143Z,24.54
2023-05-22T13:01:26.493Z,24.14
2023-05-22T13:03:53.501Z,24.05
2023-05-22T13:06:20.749Z,24.42
2023-05-22T13:08:47.319Z,24.51
2023-05-22T13:11:14.130Z,24.69
2023-05-22T13:13:40.767Z,24.95
2023-05-22T13:16:10.199Z,25.00
2023-05-22T13:18:36.843Z,25.17
2023-05-22T13:21:03.881Z,25.08
2023-05-22T13:23:30.839Z,25.10
2023-05-22T13:25:57.799Z,25.35
2023-05-22T13:28:24.583Z,25.01
2023-05-22T13:30:51.271Z,24.97
2023-05-22T13:36:01.144Z,24.57
2023-05-22T13:38:28.161Z,24.81
2023-05-22T13:40:54.877Z,24.07
2023-05-22T13:43:21.646Z,24.43
2023-05-22T13:45:48.428Z,24.91
2023-05-22T13:48:16.049Z,24.93
2023-05-22T13:50:42.956Z,25.10
2023-05-22T13:53:28.144Z,24.37
2023-05-22T13:55:55.222Z,24.18
2023-05-22T13:58:21.890Z,24.22
2023-05-22T14:00:50.032Z,24.29
2023-05-22T14:03:19.844Z,24.01
2023-05-22T14:05:46.625Z,24.03
2023-05-22T14:08:13.505Z,24.06
2023-05-22T14:10:40.478Z,23.95
2023-05-22T14:13:08.832Z,23.68
2023-05-22T14:15:38.354Z,23.72
2023-05-22T14:18:05.199Z,23.59
2023-05-22T14:20:32.039Z,23.81
2023-05-22T14:22:58.811Z,23.69
2023-05-22T14:25:26.301Z,23.83
2023-05-22T14:27:53.294Z,23.77
2023-05-22T14:30:20.097Z,23.42
2023-05-22T14:32:46.910Z,23.31
2023-05-22T14:35:14.360Z,23.15
2023-05-22T14:37:41.077Z,23.48
2023-05-22T14:40:08.546Z,23.61
2023-05-22T14:42:36.268Z,23.62
2023-05-22T14:45:04.089Z,23.77
2023-05-22T14:47:31.013Z,23.56
2023-05-22T14:50:10.247Z,23.62
2023-05-22T14:52:45.415Z,23.77
2023-05-22T14:55:12.105Z,23.68
2023-05-22T14:57:38.823Z,23.46
2023-05-22T15:00:06.854Z,23.25
2023-05-22T15:02:33.800Z,23.25
2023-05-22T15:05:00.685Z,23.01
2023-05-22T15:07:35.987Z,23.03
2023-05-22T15:10:10.734Z,23.09
2023-05-22T15:12:37.536Z,23.16
2023-05-22T15:15:04.596Z,23.48
2023-05-22T15:17:31.293Z,23.80
2023-05-22T15:19:57.991Z,23.58
2023-05-22T15:22:24.776Z,23.73
2023-05-22T15:25:06.343Z,23.99
2023-05-22T15:27:35.040Z,23.96
2023-05-22T15:30:02.627Z,23.77
2023-05-22T15:32:30.621Z,23.84
2023-05-22T15:34:57.384Z,23.98
2023-05-22T15:37:24.123Z,23.87
2023-05-22T15:39:51.019Z,23.98
2023-05-22T15:42:17.676Z,23.89
2023-05-22T15:44:44.292Z,23.60
2023-05-22T15:47:11.196Z,23.56
2023-05-22T15:49:38.159Z,23.56
2023-05-22T15:52:05.124Z,23.57
2023-05-22T15:54:31.784Z,23.58
2023-05-22T15:56:58.594Z,23.56
2023-05-22T15:59:25.375Z,23.53
2023-05-22T16:01:52.725Z,23.54
2023-05-22T16:04:19.583Z,23.50
2023-05-22T16:06:46.329Z,23.23
2023-05-22T16:09:13.100Z,23.41
2023-05-22T16:11:39.732Z,23.38
2023-05-22T16:14:06.455Z,23.31
2023-05-22T16:16:35.319Z,23.28
2023-05-22T16:19:02.014Z,23.24
2023-05-22T16:21:29.136Z,23.10
2023-05-22T16:23:58.162Z,23.17
2023-05-22T16:26:24.884Z,23.28
2023-05-22T16:28:51.533Z,23.11
2023-05-22T16:31:19.863Z,23.09
2023-05-22T16:33:46.849Z,22.99
2023-05-22T16:36:13.841Z,22.90
2023-05-22T16:38:40.685Z,23.01
2023-05-22T16:41:07.364Z,23.04
2023-05-22T16:43:36.595Z,23.09
2023-05-22T16:46:03.419Z,23.23
2023-05-22T16:48:30.257Z,23.03
2023-05-22T16:50:56.986Z,23.06
2023-05-22T16:53:23.780Z,23.12
2023-05-22T16:55:50.474Z,23.08
2023-05-22T16:58:17.180Z,23.06
2023-05-22T17:00:43.894Z,23.11
2023-05-22T17:03:11.951Z,23.22
2023-05-22T17:05:42.319Z,23.09
2023-05-22T17:08:09.572Z,23.20
2023-05-22T17:10:36.273Z,23.46
2023-05-22T17:13:02.915Z,23.09
2023-05-22T17:15:29.661Z,22.83
2023-05-22T17:17:56.582Z,22.51
2023-05-22T17:20:24.784Z,22.48
2023-05-22T17:22:52.412Z,22.63
2023-05-22T17:25:19.203Z,23.18
2023-05-22T17:27:46.490Z,23.39
2023-05-22T17:30:13.351Z,23.68
2023-05-22T17:32:40.226Z,23.83
2023-05-22T17:35:07.731Z,23.90
2023-05-22T17:37:36.245Z,23.97
2023-05-22T17:40:03.972Z,23.94
2023-05-22T17:42:30.626Z,23.84
2023-05-22T17:44:57.371Z,23.71
2023-05-22T17:47:23.999Z,23.56
2023-05-22T17:49:50.930Z,23.49
2023-05-22T17:52:17.571Z,23.62
2023-05-22T17:54:44.318Z,23.60
2023-05-22T17:57:11.765Z,23.26
2023-05-22T17:59:40.295Z,23.32
2023-05-22T18:02:08.885Z,23.22
2023-05-22T18:04:36.310Z,22.89
2023-05-22T18:07:02.933Z,22.71
2023-05-22T18:09:29.602Z,22.71
2023-05-22T18:11:56.286Z,22.75
2023-05-22T18:14:22.988Z,22.80
2023-05-22T18:16:49.760Z,22.53
2023-05-22T18:19:16.439Z,22.44
2023-05-22T18:21:43.243Z,22.41
2023-05-22T18:24:09.983Z,22.31
2023-05-22T18:26:37.739Z,22.23
2023-05-22T18:29:04.461Z,22.31
2023-05-22T18:31:31.303Z,21.94
2023-05-22T18:33:58.064Z,21.60
2023-05-22T18:36:24.839Z,21.19
2023-05-22T18:38:51.546Z,20.86
2023-05-22T18:41:18.191Z,20.76
2023-05-22T18:43:44.892Z,20.61
2023-05-22T18:46:11.607Z,20.45
2023-05-22T18:48:38.302Z,20.30
2023-05-22T18:51:56.269Z,20.28
2023-05-22T18:54:36.888Z,20.16
2023-05-22T18:57:19.529Z,19.97
2023-05-22T18:59:49.689Z,20.06
2023-05-22T19:02:16.989Z,19.92
2023-05-22T19:04:44.044Z,19.81
2023-05-22T19:07:10.885Z,19.68
2023-05-22T19:09:37.700Z,19.53
2023-05-22T19:12:07.638Z,19.51
2023-05-22T19:14:34.242Z,19.40
2023-05-22T19:17:00.902Z,19.28
2023-05-22T19:19:27.682Z,19.22
2023-05-22T19:21:54.478Z,19.14
2023-05-22T19:24:22.512Z,19.07
2023-05-22T19:26:49.152Z,19.02
2023-05-22T19:29:15.872Z,18.89
2023-05-22T19:31:42.645Z,18.96
2023-05-22T19:34:09.334Z,18.82
2023-05-22T19:36:56.428Z,18.80
2023-05-22T19:39:31.351Z,18.51
2023-05-22T19:41:58.026Z,18.43
2023-05-22T19:44:24.717Z,18.17
2023-05-22T19:46:51.636Z,18.36
2023-05-22T19:49:18.883Z,18.15
2023-05-22T19:51:46.238Z,18.01
2023-05-22T19:54:12.903Z,17.89
2023-05-22T19:56:39.809Z,17.90
2023-05-22T19:59:06.629Z,17.75
2023-05-22T20:01:33.493Z,17.54
2023-05-22T20:04:01.080Z,17.55
2023-05-22T20:06:31.564Z,17.41
2023-05-22T20:08:58.380Z,17.31
2023-05-22T20:11:25.079Z,17.19
2023-05-22T20:13:54.397Z,17.22
2023-05-22T20:16:21.302Z,17.20
2023-05-22T20:18:48.852Z,17.06
2023-05-22T20:21:15.541Z,16.87
2023-05-22T20:23:42.164Z,17.02
2023-05-22T20:26:08.733Z,16.86
2023-05-22T20:28:35.374Z,16.77
2023-05-22T20:31:02.207Z,16.71
2023-05-22T20:33:29.085Z,16.64
2023-05-22T20:35:55.848Z,16.70
2023-05-22T20:38:22.666Z,16.53
2023-05-22T20:40:49.583Z,16.55
2023-05-22T20:43:18.580Z,16.46
2023-05-22T20:45:45.770Z,16.34
2023-05-22T20:48:13.650Z,16.21
2023-05-22T20:50:42.149Z,16.19
2023-05-22T20:53:08.835Z,16.08
2023-05-22T20:55:35.741Z,16.02
2023-05-22T20:58:02.323Z,15.93
2023-05-22T21:00:30.109Z,15.94
2023-05-22T21:02:58.347Z,15.88
2023-05-22T21:05:26.340Z,15.78
2023-05-22T21:07:53.471Z,15.72
2023-05-22T21:10:22.678Z,15.75
2023-05-22T21:12:49.274Z,15.58
2023-05-22T21:15:16.292Z,15.49
2023-05-22T21:17:45.785Z,15.43
2023-05-22T21:20:12.766Z,15.43
2023-05-22T21:22:39.830Z,15.38
2023-05-22T21:25:07.129Z,15.31
2023-05-22T21:27:33.696Z,15.20
2023-05-22T21:30:00.523Z,15.32
2023-05-22T21:32:27.138Z,15.07
2023-05-22T21:34:53.978Z,15.15
2023-05-22T21:37:20.588Z,15.30
2023-05-22T21:39:47.222Z,15.17
2023-05-22T21:42:16.217Z,14.99
2023-05-22T21:44:43.037Z,14.89
2023-05-22T21:47:10.181Z,14.73
2023-05-22T21:49:39.434Z,14.65
2023-05-22T21:52:06.382Z,14.49
2023-05-22T21:54:33.121Z,14.59
2023-05-22T21:56:59.802Z,14.53
2023-05-22T21:59:26.615Z,14.59
2023-05-22T22:01:53.318Z,14.60
2023-05-22T22:04:20.307Z,14.63
2023-05-22T22:06:46.983Z,14.58
2023-05-22T22:09:13.665Z,14.57
2023-05-22T22:11:40.258Z,14.55
2023-05-22T22:14:07.677Z,14.42
2023-05-22T22:16:36.049Z,14.28
2023-05-22T22:19:03.363Z,14.24
2023-05-22T22:21:30.559Z,14.22
2023-05-22T22:23:57.635Z,14.09
2023-05-22T22:26:24.287Z,14.06
2023-05-22T22:28:51.448Z,13.96
2023-05-22T22:31:18.309Z,13.93
2023-05-22T22:33:45.128Z,13.95
2023-05-22T22:36:11.723Z,13.88
2023-05-22T22:38:38.597Z,13.85
2023-05-22T22:41:08.517Z,13.79
2023-05-22T22:43:36.118Z,13.87
2023-05-22T22:46:02.778Z,13.87
2023-05-22T22:48:29.611Z,13.81
2023-05-22T22:50:56.300Z,13.77
2023-05-22T22:53:22.943Z,13.79
2023-05-22T22:55:54.772Z,13.77
2023-05-22T22:58:21.692Z,13.74
2023-05-22T23:00:48.616Z,13.78
2023-05-22T23:03:15.579Z,13.74
2023-05-22T23:05:42.975Z,13.79
2023-05-22T23:08:09.824Z,13.82
2023-05-22T23:10:36.428Z,13.79
2023-05-22T23:13:03.146Z,13.79
2023-05-22T23:15:30.093Z,13.79
2023-05-22T23:17:56.925Z,13.85
2023-05-22T23:20:23.716Z,13.79
2023-05-22T23:22:51.143Z,13.95
2023-05-22T23:25:17.963Z,14.02
2023-05-22T23:27:44.603Z,13.99
2023-05-22T23:30:11.847Z,13.91
2023-05-22T23:32:38.524Z,13.86
2023-05-22T23:35:05.774Z,13.87
2023-05-22T23:37:32.402Z,13.95
2023-05-22T23:39:59.276Z,14.03
2023-05-22T23:42:26.020Z,14.26
2023-05-22T23:44:52.652Z,14.28
2023-05-22T23:47:19.311Z,14.29
2023-05-22T23:49:46.037Z,14.37
2023-05-22T23:52:13.181Z,14.35
2023-05-22T23:54:39.806Z,14.35
2023-05-22T23:57:06.490Z,14.40
2023-05-22T23:59:33.263Z,14.40
